ITY715 ENGM-LFSB
Flight info
| Callsign | ITY715 |
|---|---|
| Flight time | N/A |
| Altitude | 38000 |
| Route | VIPPA P615 ARTOR/N0484F400 P615 ALS M852 ALASA/N0479F390 M852 EKERN/N0483F400 N125 ELSOB/N0481F390 N850 XAROL DCT SWALM/N0485F400 DCT OMOGI/N0486F410 T721 SUNEG T715 RIGVI |
| Aircraft | A359/H-SDE1E2E3FGHIJ2J3J4J5M1RWXY/LB1D1 |
Departure
| Time | N/A |
|---|---|
| Airport | Oslo-Gardermoen International Airport (ENGM) |
Arrival
| Time | 2026-05-06 09:22 |
|---|---|
| Airport | EuroAirport Basel–Mulhouse–Freiburg (LFSB) |
| Time | Latitude | Longitude | Altitude | Speed | Heading |
|---|---|---|---|---|---|
| 2026-05-06 09:00 | 48.68144 | 8.23262 | 24545 ft | 384 kts | 216° |
| 2026-05-06 09:01 | 48.66042 | 8.20940 | 24151 ft | 366 kts | 216° |
| 2026-05-06 09:01 | 48.63987 | 8.18673 | 23682 ft | 366 kts | 216° |
| 2026-05-06 09:01 | 48.61927 | 8.16386 | 23117 ft | 369 kts | 216° |
| 2026-05-06 09:01 | 48.59871 | 8.14064 | 22545 ft | 379 kts | 216° |
| 2026-05-06 09:02 | 48.57690 | 8.11625 | 21940 ft | 405 kts | 216° |
| 2026-05-06 09:02 | 48.55380 | 8.09067 | 21358 ft | 413 kts | 216° |
| 2026-05-06 09:02 | 48.53077 | 8.06534 | 20859 ft | 407 kts | 216° |
| 2026-05-06 09:02 | 48.50804 | 8.04041 | 20289 ft | 399 kts | 215° |
| 2026-05-06 09:03 | 48.48583 | 8.01607 | 19510 ft | 391 kts | 215° |
| 2026-05-06 09:03 | 48.46380 | 7.99196 | 18789 ft | 390 kts | 215° |
| 2026-05-06 09:03 | 48.44194 | 7.96806 | 18161 ft | 386 kts | 215° |
| 2026-05-06 09:03 | 48.42024 | 7.94435 | 17543 ft | 383 kts | 215° |
| 2026-05-06 09:04 | 48.39868 | 7.92111 | 16932 ft | 377 kts | 213° |
| 2026-05-06 09:04 | 48.37567 | 7.90280 | 16329 ft | 373 kts | 202° |
| 2026-05-06 09:04 | 48.35121 | 7.89060 | 15792 ft | 367 kts | 198° |
| 2026-05-06 09:04 | 48.32662 | 7.88044 | 15092 ft | 367 kts | 194° |
| 2026-05-06 09:05 | 48.30158 | 7.87292 | 14411 ft | 367 kts | 190° |
| 2026-05-06 09:05 | 48.27666 | 7.86774 | 13820 ft | 365 kts | 187° |
| 2026-05-06 09:05 | 48.25139 | 7.86405 | 13228 ft | 363 kts | 185° |
| 2026-05-06 09:05 | 48.22654 | 7.85937 | 12647 ft | 357 kts | 192° |
| 2026-05-06 09:06 | 48.20391 | 7.84517 | 12082 ft | 353 kts | 212° |
| 2026-05-06 09:06 | 48.18577 | 7.82090 | 11631 ft | 346 kts | 225° |
| 2026-05-06 09:06 | 48.16939 | 7.79528 | 11435 ft | 334 kts | 225° |
| 2026-05-06 09:06 | 48.15457 | 7.76993 | 11059 ft | 314 kts | 234° |
| 2026-05-06 09:07 | 48.14586 | 7.74101 | 10723 ft | 299 kts | 253° |
| 2026-05-06 09:07 | 48.14288 | 7.71127 | 10420 ft | 283 kts | 263° |
| 2026-05-06 09:07 | 48.14151 | 7.68210 | 10187 ft | 279 kts | 264° |
| 2026-05-06 09:07 | 48.14024 | 7.65351 | 9899 ft | 277 kts | 264° |
| 2026-05-06 09:08 | 48.13888 | 7.62440 | 9572 ft | 276 kts | 264° |
| 2026-05-06 09:08 | 48.13751 | 7.59608 | 9262 ft | 275 kts | 264° |
| 2026-05-06 09:08 | 48.13607 | 7.56758 | 8967 ft | 274 kts | 264° |
| 2026-05-06 09:08 | 48.13458 | 7.53915 | 8688 ft | 274 kts | 264° |
| 2026-05-06 09:09 | 48.13138 | 7.51131 | 8486 ft | 272 kts | 250° |
| 2026-05-06 09:09 | 48.12099 | 7.48795 | 8293 ft | 272 kts | 224° |
| 2026-05-06 09:09 | 48.10464 | 7.47431 | 8095 ft | 272 kts | 199° |
| 2026-05-06 09:09 | 48.08592 | 7.46987 | 7896 ft | 273 kts | 186° |
| 2026-05-06 09:10 | 48.06701 | 7.46833 | 7694 ft | 273 kts | 185° |
| 2026-05-06 09:10 | 48.04808 | 7.46626 | 7494 ft | 272 kts | 187° |
| 2026-05-06 09:10 | 48.02929 | 7.46308 | 7291 ft | 271 kts | 189° |
| 2026-05-06 09:10 | 48.01067 | 7.45902 | 7030 ft | 271 kts | 189° |
| 2026-05-06 09:11 | 47.99176 | 7.45489 | 6479 ft | 279 kts | 190° |
| 2026-05-06 09:11 | 47.97267 | 7.45007 | 6129 ft | 272 kts | 191° |
| 2026-05-06 09:11 | 47.95440 | 7.44476 | 5839 ft | 267 kts | 192° |
| 2026-05-06 09:11 | 47.93647 | 7.43904 | 5545 ft | 266 kts | 193° |
| 2026-05-06 09:12 | 47.91838 | 7.43304 | 5245 ft | 265 kts | 193° |
| 2026-05-06 09:12 | 47.90047 | 7.42708 | 4956 ft | 264 kts | 193° |
| 2026-05-06 09:12 | 47.88278 | 7.42124 | 4669 ft | 257 kts | 193° |
| 2026-05-06 09:12 | 47.86532 | 7.41550 | 4425 ft | 255 kts | 193° |
| 2026-05-06 09:13 | 47.84831 | 7.40993 | 4350 ft | 245 kts | 193° |
| 2026-05-06 09:13 | 47.83741 | 7.40635 | 4302 ft | 239 kts | 193° |
| 2026-05-06 09:13 | 47.82147 | 7.40112 | 4241 ft | 230 kts | 193° |
| 2026-05-06 09:13 | 47.80623 | 7.39614 | 4196 ft | 218 kts | 193° |
| 2026-05-06 09:14 | 47.79168 | 7.39254 | 4139 ft | 206 kts | 184° |
| 2026-05-06 09:14 | 47.77798 | 7.39483 | 4126 ft | 192 kts | 170° |
| 2026-05-06 09:14 | 47.76570 | 7.40121 | 4049 ft | 183 kts | 159° |
| 2026-05-06 09:14 | 47.75495 | 7.41083 | 3911 ft | 180 kts | 149° |
| 2026-05-06 09:15 | 47.74413 | 7.42057 | 3694 ft | 183 kts | 153° |
| 2026-05-06 09:15 | 47.73286 | 7.42915 | 3448 ft | 181 kts | 155° |
| 2026-05-06 09:15 | 47.72149 | 7.43720 | 3201 ft | 180 kts | 156° |
| 2026-05-06 09:15 | 47.71059 | 7.44572 | 2956 ft | 179 kts | 146° |
| 2026-05-06 09:16 | 47.70333 | 7.46063 | 2707 ft | 182 kts | 116° |
| 2026-05-06 09:16 | 47.69942 | 7.47839 | 2499 ft | 179 kts | 110° |
| 2026-05-06 09:16 | 47.69554 | 7.49562 | 2332 ft | 173 kts | 110° |
| 2026-05-06 09:16 | 47.69150 | 7.51233 | 2125 ft | 170 kts | 110° |
| 2026-05-06 09:17 | 47.68728 | 7.52844 | 2029 ft | 167 kts | 110° |
| 2026-05-06 09:17 | 47.68304 | 7.54429 | 1988 ft | 167 kts | 110° |
| 2026-05-06 09:17 | 47.67786 | 7.55971 | 1987 ft | 168 kts | 125° |
| 2026-05-06 09:17 | 47.66829 | 7.56956 | 1992 ft | 171 kts | 152° |
| 2026-05-06 09:18 | 47.65724 | 7.57632 | 1998 ft | 172 kts | 152° |
| 2026-05-06 09:18 | 47.64660 | 7.58423 | 1991 ft | 171 kts | 152° |
| 2026-05-06 09:18 | 47.63603 | 7.59229 | 2003 ft | 170 kts | 152° |
| 2026-05-06 09:18 | 47.62536 | 7.60005 | 2000 ft | 171 kts | 154° |
| 2026-05-06 09:19 | 47.61453 | 7.60728 | 1997 ft | 169 kts | 154° |
| 2026-05-06 09:19 | 47.60394 | 7.61399 | 2000 ft | 164 kts | 161° |
| 2026-05-06 09:19 | 47.59274 | 7.61396 | 1844 ft | 166 kts | 198° |
| 2026-05-06 09:19 | 47.58449 | 7.60254 | 1694 ft | 164 kts | 236° |
| 2026-05-06 09:20 | 47.58102 | 7.58688 | 1716 ft | 158 kts | 254° |
| 2026-05-06 09:20 | 47.57839 | 7.57142 | 1687 ft | 151 kts | 255° |
| 2026-05-06 09:20 | 47.57592 | 7.55669 | 1512 ft | 144 kts | 261° |
| 2026-05-06 09:20 | 47.57706 | 7.54240 | 1328 ft | 141 kts | 292° |
| 2026-05-06 09:21 | 47.58412 | 7.53301 | 1185 ft | 137 kts | 324° |
| 2026-05-06 09:21 | 47.59278 | 7.52719 | 975 ft | 134 kts | 334° |
| 2026-05-06 09:21 | 47.60053 | 7.52177 | 901 ft | 110 kts | 335° |
| 2026-05-06 09:21 | 47.60589 | 7.51812 | 899 ft | 58 kts | 334° |
| 2026-05-06 09:22 | 47.60878 | 7.51612 | 899 ft | 17 kts | 336° |
| 2026-05-06 09:22 | 47.60970 | 7.51546 | 899 ft | 13 kts | 335° |
| 2026-05-06 09:22 | 47.61031 | 7.51553 | 899 ft | 9 kts | 40° |
| 2026-05-06 09:22 | 47.61066 | 7.51627 | 899 ft | 9 kts | 63° |
| 2026-05-06 09:23 | 47.61083 | 7.51708 | 899 ft | 8 kts | 90° |
| 2026-05-06 09:23 | 47.61055 | 7.51773 | 899 ft | 8 kts | 145° |
| 2026-05-06 09:23 | 47.61011 | 7.51811 | 899 ft | 7 kts | 154° |
| 2026-05-06 09:23 | 47.60932 | 7.51865 | 899 ft | 15 kts | 155° |
| 2026-05-06 09:24 | 47.60842 | 7.51927 | 899 ft | 14 kts | 155° |
| 2026-05-06 09:24 | 47.60758 | 7.51986 | 899 ft | 13 kts | 154° |
| 2026-05-06 09:24 | 47.60679 | 7.52041 | 899 ft | 12 kts | 155° |
| 2026-05-06 09:24 | 47.60600 | 7.52096 | 899 ft | 14 kts | 154° |
| 2026-05-06 09:25 | 47.60502 | 7.52164 | 899 ft | 15 kts | 155° |
| 2026-05-06 09:25 | 47.60409 | 7.52229 | 899 ft | 14 kts | 156° |
| 2026-05-06 09:25 | 47.60321 | 7.52291 | 899 ft | 13 kts | 154° |
| 2026-05-06 09:25 | 47.60241 | 7.52346 | 899 ft | 10 kts | 155° |
| 2026-05-06 09:26 | 47.60198 | 7.52407 | 899 ft | 9 kts | 102° |
| 2026-05-06 09:26 | 47.60172 | 7.52482 | 899 ft | 8 kts | 142° |
| 2026-05-06 09:26 | 47.60113 | 7.52530 | 899 ft | 13 kts | 154° |
| 2026-05-06 09:26 | 47.60045 | 7.52578 | 899 ft | 9 kts | 153° |
| 2026-05-06 09:27 | 47.60030 | 7.52658 | 899 ft | 9 kts | 74° |
| 2026-05-06 09:27 | 47.60050 | 7.52741 | 899 ft | 8 kts | 79° |
| 2026-05-06 09:27 | 47.60042 | 7.52821 | 899 ft | 8 kts | 83° |
| 2026-05-06 09:27 | 47.60050 | 7.52882 | 899 ft | 5 kts | 111° |
| 2026-05-06 09:28 | 47.60032 | 7.52928 | 899 ft | 5 kts | 122° |
| 2026-05-06 09:28 | 47.60017 | 7.52960 | 899 ft | 1 kts | 125° |